Time;durP1;ratioP1;P1;durP2;ratioP2;P2;SDS_P1;SDS_P2;PMS_P1;PMS_P2;Temp;Humidity;BMP_temperature;BMP_pressure;BME280_temperature;BME280_humidity;BME280_pressure;Samples;Min_cycle;Max_cycle;Signal;HPM_P1;HPM_P2
2022/03/27 00:00:02;;;;;;;9.80;5.60;;;21.80;49.60;;;;;;5075164;28;20033;-68
2022/03/27 00:02:40;;;;;;;9.75;5.63;;;21.80;49.50;;;;;;5074060;28;20037;-68
2022/03/27 00:05:08;;;;;;;17.17;6.78;;;21.90;49.80;;;;;;5096580;28;20037;-68
2022/03/27 00:07:34;;;;;;;11.27;4.80;;;21.80;49.10;;;;;;5099791;28;20033;-69
2022/03/27 00:10:01;;;;;;;11.23;6.28;;;21.80;50.00;;;;;;5080490;28;20445;-68
2022/03/27 00:12:27;;;;;;;13.63;6.47;;;21.70;48.70;;;;;;5081441;28;20041;-68
2022/03/27 00:14:53;;;;;;;5.88;4.50;;;21.80;49.80;;;;;;5079254;28;20049;-69
2022/03/27 00:17:19;;;;;;;7.55;4.78;;;21.70;49.40;;;;;;5096705;28;20409;-68
2022/03/27 00:19:45;;;;;;;6.50;4.97;;;21.80;49.70;;;;;;5099171;28;20037;-68
2022/03/27 00:22:11;;;;;;;4.88;4.38;;;21.70;50.00;;;;;;5082409;28;20041;-68
2022/03/27 00:24:37;;;;;;;9.10;5.85;;;21.70;50.10;;;;;;5098529;28;20064;-68
2022/03/27 00:27:03;;;;;;;6.75;4.90;;;21.80;49.10;;;;;;5068623;28;20048;-68
2022/03/27 00:29:30;;;;;;;8.30;5.40;;;21.70;49.40;;;;;;5062190;28;20037;-68
2022/03/27 00:31:56;;;;;;;9.13;5.75;;;21.80;50.60;;;;;;5092885;28;20041;-68
2022/03/27 00:34:22;;;;;;;9.63;5.25;;;21.60;49.90;;;;;;5086579;28;20071;-68
2022/03/27 00:36:49;;;;;;;6.60;5.13;;;21.70;50.60;;;;;;5079247;28;20124;-68
2022/03/27 00:39:16;;;;;;;9.63;5.10;;;21.90;50.70;;;;;;5079650;28;20048;-68
2022/03/27 00:41:43;;;;;;;8.65;5.93;;;21.90;50.80;;;;;;5081417;28;20045;-67
2022/03/27 00:44:09;;;;;;;8.05;5.60;;;21.80;50.50;;;;;;5081654;28;20051;-69
2022/03/27 00:46:35;;;;;;;8.50;5.32;;;21.80;50.60;;;;;;5089722;28;20041;-68
2022/03/27 00:49:01;;;;;;;7.70;5.07;;;21.80;50.60;;;;;;5097503;28;20049;-68
2022/03/27 00:51:28;;;;;;;7.72;5.35;;;21.80;50.60;;;;;;5099297;28;20044;-68
2022/03/27 00:53:54;;;;;;;8.60;6.20;;;21.80;50.40;;;;;;5098310;28;20093;-68
2022/03/27 00:56:20;;;;;;;8.07;5.72;;;21.70;50.70;;;;;;5087217;28;20038;-68
2022/03/27 00:58:46;;;;;;;7.45;5.80;;;21.80;50.50;;;;;;5079541;28;20069;-68
2022/03/27 01:01:24;;;;;;;11.57;6.10;;;21.80;50.80;;;;;;5079635;28;20037;-68
2022/03/27 01:03:54;;;;;;;8.43;4.90;;;21.70;50.90;;;;;;5092702;28;20044;-68
2022/03/27 01:06:33;;;;;;;10.98;6.68;;;21.70;51.00;;;;;;5085836;28;20044;-69
2022/03/27 01:11:46;;;;;;;8.00;5.68;;;21.60;50.90;;;;;;5069829;28;20059;-68
2022/03/27 01:14:13;;;;;;;7.03;5.70;;;21.60;50.80;;;;;;5092181;28;20045;-69
2022/03/27 01:16:55;;;;;;;8.90;5.30;;;21.60;51.10;;;;;;5079163;28;20040;-68
2022/03/27 01:19:21;;;;;;;7.32;5.25;;;21.60;51.10;;;;;;5078864;28;20037;-68
2022/03/27 01:21:48;;;;;;;6.05;4.38;;;21.60;50.50;;;;;;5061514;28;20041;-69
2022/03/27 01:24:17;;;;;;;4.47;2.70;;;21.60;51.30;;;;;;5078504;28;20062;-68
2022/03/27 01:26:44;;;;;;;10.07;4.70;;;21.70;51.30;;;;;;5049061;28;20036;-69
2022/03/27 01:29:10;;;;;;;6.63;3.83;;;21.70;50.80;;;;;;5096566;28;20044;-69
2022/03/27 01:31:36;;;;;;;3.92;2.80;;;21.70;51.10;;;;;;5088418;28;20052;-68
2022/03/27 01:34:04;;;;;;;5.80;3.25;;;21.70;49.70;;;;;;5098633;28;20051;-68
2022/03/27 01:36:35;;;;;;;4.88;2.92;;;21.60;50.20;;;;;;5098466;28;20059;-69
2022/03/27 01:39:07;;;;;;;4.28;2.97;;;21.60;51.00;;;;;;5077717;28;20083;-69
2022/03/27 01:41:35;;;;;;;5.43;2.95;;;21.70;51.10;;;;;;5080647;28;20044;-69
2022/03/27 01:44:04;;;;;;;7.47;3.35;;;21.60;49.30;;;;;;5097204;28;20044;-68
2022/03/27 01:46:31;;;;;;;4.00;2.50;;;21.70;50.00;;;;;;5081565;28;20044;-68
2022/03/27 01:49:03;;;;;;;3.90;2.30;;;21.60;50.40;;;;;;5080010;28;20045;-68
2022/03/27 01:51:30;;;;;;;9.48;4.03;;;21.60;50.80;;;;;;5077138;28;20036;-69
2022/03/27 01:53:56;;;;;;;5.97;3.58;;;21.50;50.50;;;;;;5078021;28;20037;-68
2022/03/27 01:56:23;;;;;;;9.68;4.15;;;21.80;49.50;;;;;;5077897;28;20052;-68
2022/03/27 01:58:50;;;;;;;6.68;3.80;;;21.60;49.50;;;;;;5094619;28;20065;-69
2022/03/27 02:01:17;;;;;;;6.53;3.67;;;21.50;49.40;;;;;;5076762;28;20033;-68
2022/03/27 02:03:43;;;;;;;8.40;4.45;;;21.50;50.50;;;;;;5092839;28;20036;-68
2022/03/27 02:06:09;;;;;;;12.32;5.18;;;21.60;49.30;;;;;;5097321;28;20036;-68
2022/03/27 02:08:35;;;;;;;10.25;4.60;;;21.50;49.80;;;;;;5096639;28;20066;-68
2022/03/27 02:11:02;;;;;;;10.05;3.45;;;21.40;51.50;;;;;;5096375;28;20040;-70
2022/03/27 02:13:29;;;;;;;16.05;4.68;;;21.50;51.70;;;;;;5081440;28;20052;-68
2022/03/27 02:15:58;;;;;;;14.73;5.03;;;21.40;49.60;;;;;;5077253;28;20041;-68
2022/03/27 02:18:29;;;;;;;8.50;3.90;;;21.40;50.00;;;;;;5077358;28;20043;-68
2022/03/27 02:20:56;;;;;;;10.50;5.05;;;21.40;51.60;;;;;;5077082;28;20041;-69
2022/03/27 02:23:23;;;;;;;8.23;3.95;;;21.40;49.90;;;;;;5077613;28;20045;-68
2022/03/27 02:25:50;;;;;;;9.38;4.63;;;21.40;51.70;;;;;;5077314;28;20041;-69
2022/03/27 02:28:17;;;;;;;9.82;4.25;;;21.30;51.40;;;;;;5079690;28;20041;-68
2022/03/27 02:30:44;;;;;;;1.40;1.00;;;21.40;49.80;;;;;;5080551;28;20068;-67
2022/03/27 02:33:10;;;;;;;7.22;4.28;;;21.40;51.40;;;;;;5042416;28;20077;-68
2022/03/27 02:35:36;;;;;;;7.55;4.07;;;21.40;49.10;;;;;;5057084;28;20132;-68
2022/03/27 02:38:07;;;;;;;9.25;4.07;;;21.40;50.20;;;;;;5057317;28;20134;-68
2022/03/27 02:40:34;;;;;;;5.00;3.40;;;21.40;50.40;;;;;;5057901;28;20068;-68
2022/03/27 02:43:01;;;;;;;3.70;2.55;;;21.40;51.50;;;;;;5060234;28;20034;-68
2022/03/27 02:45:27;;;;;;;6.68;3.45;;;21.40;51.30;;;;;;5061414;28;20067;-69
2022/03/27 02:47:57;;;;;;;9.05;3.72;;;21.50;50.80;;;;;;5074638;28;20040;-70
2022/03/27 02:50:26;;;;;;;6.43;3.25;;;21.50;51.30;;;;;;5076934;28;20037;-69
2022/03/27 02:52:53;;;;;;;5.50;3.65;;;21.40;51.50;;;;;;5076944;28;20051;-68
2022/03/27 02:55:20;;;;;;;6.25;3.92;;;21.40;50.60;;;;;;5068250;28;20057;-68
2022/03/27 02:57:47;;;;;;;4.20;2.42;;;21.50;51.00;;;;;;5057223;28;20037;-68
2022/03/27 03:00:14;;;;;;;9.18;3.38;;;21.40;51.50;;;;;;5061429;28;20041;-68
2022/03/27 03:02:40;;;;;;;6.03;3.50;;;21.40;51.20;;;;;;5055837;28;20029;-68
2022/03/27 03:05:07;;;;;;;6.53;2.75;;;21.40;51.20;;;;;;5056521;28;20048;-68
2022/03/27 03:07:33;;;;;;;3.95;1.80;;;21.40;50.80;;;;;;5056991;28;20033;-68
2022/03/27 03:10:06;;;;;;;3.22;2.65;;;21.40;50.50;;;;;;5075750;28;20105;-70
2022/03/27 03:12:32;;;;;;;8.45;3.03;;;21.40;50.70;;;;;;5068242;28;20044;-68
2022/03/27 03:14:58;;;;;;;12.95;3.00;;;21.40;51.70;;;;;;5058373;28;20045;-68
2022/03/27 03:17:25;;;;;;;5.57;3.17;;;21.30;50.50;;;;;;5056827;28;20041;-68
2022/03/27 03:19:52;;;;;;;6.82;3.13;;;21.30;50.40;;;;;;5056589;28;20037;-68
2022/03/27 03:22:19;;;;;;;7.05;3.33;;;21.30;51.10;;;;;;5056745;28;20041;-68
2022/03/27 03:24:46;;;;;;;4.70;3.20;;;21.30;51.00;;;;;;5055895;28;20045;-67
2022/03/27 03:27:12;;;;;;;8.15;3.95;;;21.20;47.90;;;;;;5058912;28;20125;-69
2022/03/27 03:29:39;;;;;;;7.78;3.60;;;21.30;51.90;;;;;;5057919;28;20042;-68
2022/03/27 03:32:06;;;;;;;13.48;3.13;;;21.30;51.70;;;;;;5078449;28;20068;-68
2022/03/27 03:34:32;;;;;;;5.68;2.70;;;21.30;51.90;;;;;;5096314;28;20054;-68
2022/03/27 03:36:58;;;;;;;4.45;3.38;;;21.40;51.70;;;;;;5096358;28;20025;-69
2022/03/27 03:39:25;;;;;;;9.05;2.78;;;21.30;50.60;;;;;;5100036;28;20041;-69
2022/03/27 03:41:51;;;;;;;5.10;3.13;;;21.30;51.50;;;;;;5095154;28;20044;-68
2022/03/27 03:44:20;;;;;;;4.68;3.00;;;21.20;51.60;;;;;;5092100;28;20040;-68
2022/03/27 03:46:46;;;;;;;8.40;2.95;;;21.20;51.70;;;;;;5098602;28;20033;-68
2022/03/27 03:49:12;;;;;;;9.88;2.63;;;21.20;51.20;;;;;;5100049;28;20055;-68
2022/03/27 03:51:38;;;;;;;2.03;1.50;;;21.10;51.90;;;;;;5096648;28;20048;-68
2022/03/27 03:54:08;;;;;;;8.68;2.08;;;21.20;51.80;;;;;;5080384;28;20071;-68
2022/03/27 03:56:35;;;;;;;3.28;2.28;;;21.00;51.20;;;;;;5062608;28;20036;-69
2022/03/27 03:59:01;;;;;;;4.18;1.65;;;21.10;52.00;;;;;;5082827;28;20093;-69
2022/03/27 04:01:27;;;;;;;6.95;1.48;;;21.10;51.70;;;;;;5085710;28;20047;-68
2022/03/27 04:03:53;;;;;;;3.35;1.30;;;21.00;51.80;;;;;;5084250;28;20045;-68
2022/03/27 04:06:20;;;;;;;2.53;1.48;;;21.00;51.10;;;;;;5079283;28;20052;-68
2022/03/27 04:08:47;;;;;;;3.63;1.90;;;21.00;51.90;;;;;;5079414;28;20124;-68
2022/03/27 04:11:16;;;;;;;4.28;1.38;;;21.00;51.60;;;;;;5084243;28;20044;-68
2022/03/27 04:13:43;;;;;;;1.73;1.17;;;20.90;51.80;;;;;;5085703;28;20047;-68
2022/03/27 04:16:10;;;;;;;3.47;1.42;;;20.90;51.60;;;;;;5082772;28;20060;-68
2022/03/27 04:18:37;;;;;;;4.45;1.20;;;20.90;51.90;;;;;;5099381;28;20759;-68
2022/03/27 04:21:04;;;;;;;6.97;1.45;;;20.90;51.90;;;;;;5094320;28;20040;-69
2022/03/27 04:23:30;;;;;;;1.98;1.02;;;20.90;51.70;;;;;;5079329;28;20037;-68
2022/03/27 04:25:56;;;;;;;1.98;1.30;;;20.90;51.70;;;;;;5079268;28;20029;-68
2022/03/27 04:28:22;;;;;;;2.70;1.27;;;20.90;51.90;;;;;;5085124;28;20041;-69
2022/03/27 04:30:49;;;;;;;4.15;1.73;;;20.70;51.50;;;;;;5080980;28;20092;-69
2022/03/27 04:33:16;;;;;;;3.50;1.50;;;20.90;51.90;;;;;;5078618;28;20066;-69
2022/03/27 04:35:43;;;;;;;1.77;1.20;;;20.90;51.60;;;;;;5078915;28;20044;-69
2022/03/27 04:38:09;;;;;;;6.72;1.20;;;21.00;51.50;;;;;;5078707;28;20040;-68
2022/03/27 04:40:37;;;;;;;1.98;1.02;;;20.90;51.50;;;;;;5078238;28;20040;-68
2022/03/27 04:43:05;;;;;;;4.43;1.52;;;20.90;51.30;;;;;;5079904;28;20045;-68
2022/03/27 04:45:32;;;;;;;5.18;1.40;;;20.90;51.20;;;;;;5078870;28;20032;-69
2022/03/27 04:47:58;;;;;;;2.35;1.50;;;20.90;51.00;;;;;;5078493;28;20048;-68
2022/03/27 04:50:25;;;;;;;2.22;1.35;;;20.90;51.10;;;;;;5077801;28;20029;-69
2022/03/27 04:52:51;;;;;;;2.88;1.48;;;20.90;49.20;;;;;;5061190;28;20056;-69
2022/03/27 04:55:17;;;;;;;3.85;1.50;;;21.00;50.00;;;;;;5078533;28;20032;-68
2022/03/27 04:57:43;;;;;;;6.80;1.50;;;21.10;50.80;;;;;;5085638;28;20052;-68
2022/03/27 05:00:14;;;;;;;0.98;0.80;;;21.10;50.10;;;;;;5082425;28;20036;-68
2022/03/27 05:02:42;;;;;;;1.20;1.10;;;21.10;50.30;;;;;;5080063;28;20057;-68
2022/03/27 05:05:10;;;;;;;1.88;1.05;;;21.20;50.30;;;;;;5078281;28;20052;-69
2022/03/27 05:07:38;;;;;;;3.25;1.63;;;21.30;50.50;;;;;;5078095;28;20029;-69
2022/03/27 05:10:05;;;;;;;2.15;1.23;;;21.30;50.40;;;;;;5080059;28;20059;-69
2022/03/27 05:12:32;;;;;;;4.55;1.75;;;21.30;50.40;;;;;;5091086;28;20108;-68
2022/03/27 05:14:58;;;;;;;1.73;1.02;;;21.40;50.00;;;;;;5092763;28;20044;-67
2022/03/27 05:17:24;;;;;;;3.05;0.98;;;21.40;50.40;;;;;;5094420;28;20032;-67
2022/03/27 05:19:51;;;;;;;1.35;1.25;;;21.50;50.60;;;;;;5096661;28;20032;-67
2022/03/27 05:22:17;;;;;;;2.05;1.08;;;21.60;50.60;;;;;;5093149;28;20117;-67
2022/03/27 05:24:45;;;;;;;3.40;1.00;;;21.60;50.10;;;;;;5094985;28;20040;-67
2022/03/27 05:27:12;;;;;;;2.97;1.23;;;21.50;48.20;;;;;;5096045;28;20040;-67
2022/03/27 05:29:38;;;;;;;2.15;1.15;;;21.70;45.60;;;;;;5088022;28;20040;-68
2022/03/27 05:32:05;;;;;;;4.80;1.58;;;21.70;44.10;;;;;;5095337;28;20044;-67
2022/03/27 05:34:31;;;;;;;5.55;1.30;;;21.70;43.50;;;;;;5078882;28;20041;-68
2022/03/27 05:36:57;;;;;;;6.55;1.73;;;21.80;43.10;;;;;;5072466;28;20040;-68
2022/03/27 05:39:24;;;;;;;3.10;1.15;;;21.70;43.40;;;;;;5091190;28;20047;-68
2022/03/27 05:41:50;;;;;;;2.25;1.30;;;21.80;43.40;;;;;;5074338;28;20040;-68
2022/03/27 05:44:16;;;;;;;2.38;1.60;;;21.90;44.10;;;;;;5094006;28;20051;-67
2022/03/27 05:46:42;;;;;;;1.63;1.05;;;21.80;43.00;;;;;;5084661;28;20067;-68
2022/03/27 05:49:08;;;;;;;1.40;1.13;;;21.90;44.10;;;;;;5077390;28;20041;-68
2022/03/27 05:51:34;;;;;;;5.07;1.02;;;21.90;44.20;;;;;;5091118;28;20047;-67
2022/03/27 05:54:00;;;;;;;2.47;1.50;;;21.90;45.30;;;;;;5074974;28;20033;-67
2022/03/27 05:56:26;;;;;;;3.97;1.80;;;22.00;43.20;;;;;;5095475;28;20036;-67
2022/03/27 05:58:52;;;;;;;4.32;1.10;;;22.10;46.00;;;;;;5089624;28;20040;-67
2022/03/27 06:01:19;;;;;;;3.20;1.67;;;22.00;42.50;;;;;;5083648;28;20040;-69
2022/03/27 06:03:45;;;;;;;2.35;1.50;;;22.10;44.90;;;;;;5097075;28;20043;-69
2022/03/27 06:06:11;;;;;;;2.33;1.40;;;22.10;48.70;;;;;;5083049;28;20041;-69
2022/03/27 06:08:37;;;;;;;2.00;1.30;;;22.10;50.20;;;;;;5060770;28;20056;-68
2022/03/27 06:11:05;;;;;;;2.80;1.30;;;22.00;50.40;;;;;;5096700;28;20047;-69
2022/03/27 06:13:31;;;;;;;1.25;1.15;;;22.00;48.90;;;;;;5095025;28;20037;-67
2022/03/27 06:15:57;;;;;;;1.45;1.13;;;22.00;49.50;;;;;;5084659;28;20055;-69
2022/03/27 06:18:23;;;;;;;5.10;1.38;;;21.90;51.30;;;;;;5059904;28;20040;-72
2022/03/27 06:20:49;;;;;;;1.83;1.60;;;21.90;48.70;;;;;;5077152;28;20025;-68
2022/03/27 06:23:15;;;;;;;2.08;1.20;;;21.80;46.80;;;;;;5093632;28;20040;-69
2022/03/27 06:25:41;;;;;;;3.53;1.42;;;21.90;51.30;;;;;;5089794;28;20052;-69
2022/03/27 06:28:07;;;;;;;1.40;1.17;;;21.90;47.70;;;;;;5076905;28;20044;-69
2022/03/27 06:30:35;;;;;;;3.05;1.25;;;21.90;51.80;;;;;;5090056;28;20044;-69
2022/03/27 06:33:02;;;;;;;3.20;0.95;;;22.00;50.00;;;;;;5111063;28;20073;-69
2022/03/27 06:35:29;;;;;;;6.70;1.73;;;22.00;51.20;;;;;;5098004;28;20036;-69
2022/03/27 06:37:56;;;;;;;4.03;1.00;;;22.00;52.60;;;;;;5110956;28;20033;-69
2022/03/27 06:40:23;;;;;;;4.07;1.65;;;22.00;53.40;;;;;;5087940;28;20047;-70
2022/03/27 06:42:49;;;;;;;7.05;1.83;;;22.10;53.60;;;;;;5083882;28;20033;-70
2022/03/27 06:45:18;;;;;;;8.60;2.45;;;22.20;53.20;;;;;;5096170;28;20051;-70
2022/03/27 06:47:46;;;;;;;2.58;1.25;;;22.00;50.90;;;;;;5095339;28;20108;-69
2022/03/27 06:50:14;;;;;;;3.05;1.70;;;22.10;53.90;;;;;;5114196;28;20052;-68
2022/03/27 06:52:40;;;;;;;10.43;1.70;;;22.10;51.80;;;;;;5098734;28;20100;-69
2022/03/27 06:55:08;;;;;;;1.48;0.88;;;22.20;50.50;;;;;;5096316;28;20033;-68
2022/03/27 06:57:35;;;;;;;1.35;1.15;;;22.10;53.10;;;;;;5096337;28;20037;-67
2022/03/27 07:03:02;;;;;;;2.78;1.27;;;22.60;49.30;;;;;;5088368;28;20037;-67
2022/03/27 07:05:35;;;;;;;8.48;1.83;;;22.80;49.40;;;;;;5078836;28;20121;-67
2022/03/27 07:08:01;;;;;;;2.17;1.27;;;23.00;48.00;;;;;;5079904;28;20104;-68
2022/03/27 07:10:28;;;;;;;5.15;1.48;;;22.90;43.00;;;;;;5086048;28;20070;-66
2022/03/27 07:12:54;;;;;;;1.90;1.35;;;22.90;48.40;;;;;;5092931;28;20047;-68
2022/03/27 07:15:20;;;;;;;2.97;0.98;;;23.00;49.20;;;;;;5076853;28;20136;-68
2022/03/27 07:17:48;;;;;;;1.27;0.95;;;22.80;45.60;;;;;;5092321;28;20032;-68
2022/03/27 07:20:36;;;;;;;1.20;0.85;;;22.90;45.00;;;;;;5075718;28;20041;-68
2022/03/27 07:23:05;;;;;;;4.43;1.35;;;22.80;48.30;;;;;;5082814;28;20036;-68
2022/03/27 07:25:36;;;;;;;9.82;0.90;;;22.80;48.00;;;;;;5092151;28;20040;-69
2022/03/27 07:28:06;;;;;;;1.23;0.50;;;22.80;46.70;;;;;;5083820;28;20107;-67
2022/03/27 07:30:33;;;;;;;2.38;0.90;;;22.80;45.70;;;;;;5084103;28;20037;-68
2022/03/27 07:32:59;;;;;;;0.35;0.35;;;22.90;43.80;;;;;;5074914;28;20072;-68
2022/03/27 07:35:27;;;;;;;2.13;0.95;;;22.80;42.80;;;;;;5074911;28;20108;-68
2022/03/27 07:37:53;;;;;;;7.05;1.52;;;22.80;41.80;;;;;;5077064;28;20069;-68
2022/03/27 07:40:21;;;;;;;2.05;0.63;;;22.70;40.10;;;;;;5084649;28;20029;-68
2022/03/27 07:42:50;;;;;;;5.63;1.05;;;22.70;41.20;;;;;;5085121;28;20040;-68
2022/03/27 07:45:21;;;;;;;3.25;0.90;;;22.70;38.30;;;;;;5086732;28;20070;-69
2022/03/27 07:47:49;;;;;;;1.58;1.17;;;22.60;39.30;;;;;;5083916;28;20052;-71
2022/03/27 07:50:18;;;;;;;4.78;1.25;;;22.40;26.60;;;;;;5079006;28;20048;-75
2022/03/27 07:52:45;;;;;;;18.80;3.55;;;22.20;29.10;;;;;;5082811;28;20122;-70
2022/03/27 07:55:14;;;;;;;5.25;1.42;;;21.90;27.50;;;;;;5073136;28;20064;-70
2022/03/27 07:57:42;;;;;;;9.43;2.47;;;21.80;26.10;;;;;;5071675;28;20874;-72
2022/03/27 08:00:14;;;;;;;17.25;2.00;;;21.50;23.70;;;;;;5078759;28;20040;-70
2022/03/27 08:02:42;;;;;;;7.30;1.83;;;21.40;27.30;;;;;;5089341;28;20037;-69
2022/03/27 08:05:09;;;;;;;9.80;1.58;;;21.30;26.40;;;;;;5082838;28;20109;-70
2022/03/27 08:07:35;;;;;;;5.40;1.73;;;21.00;20.90;;;;;;5093314;28;20029;-70
2022/03/27 08:10:03;;;;;;;21.63;2.20;;;21.30;27.70;;;;;;5095397;28;20096;-71
2022/03/27 08:12:29;;;;;;;3.28;1.30;;;21.00;24.30;;;;;;5092380;28;20052;-70
2022/03/27 08:14:56;;;;;;;2.53;1.10;;;21.00;22.80;;;;;;5094484;28;20045;-68
2022/03/27 08:17:22;;;;;;;6.60;1.02;;;20.80;24.20;;;;;;5094410;28;20040;-68
2022/03/27 08:19:50;;;;;;;12.45;1.95;;;20.90;27.10;;;;;;5095146;28;20104;-67
2022/03/27 08:22:19;;;;;;;1.73;1.45;;;21.00;28.90;;;;;;5087480;28;20076;-68
2022/03/27 08:24:46;;;;;;;4.00;1.20;;;21.00;30.60;;;;;;5075602;28;20057;-69
2022/03/27 08:27:13;;;;;;;6.13;1.83;;;21.30;31.20;;;;;;5078019;28;20112;-67
2022/03/27 08:29:41;;;;;;;6.20;1.27;;;21.30;31.50;;;;;;5078631;28;20040;-68
2022/03/27 08:32:12;;;;;;;6.93;1.83;;;21.40;31.00;;;;;;5078392;28;20086;-68
2022/03/27 08:34:47;;;;;;;4.57;1.23;;;21.50;30.90;;;;;;5078751;28;20125;-68
2022/03/27 08:37:16;;;;;;;1.85;1.02;;;21.40;30.70;;;;;;5082765;28;20044;-67
2022/03/27 08:39:46;;;;;;;3.53;1.17;;;21.50;30.30;;;;;;5092822;28;20044;-68
2022/03/27 08:42:14;;;;;;;2.75;1.08;;;21.50;32.40;;;;;;5098269;28;20055;-68
2022/03/27 08:44:40;;;;;;;1.60;1.08;;;21.40;31.10;;;;;;5079411;28;20052;-67
2022/03/27 08:47:15;;;;;;;2.90;1.30;;;21.50;33.80;;;;;;5077446;28;20511;-69
2022/03/27 08:49:46;;;;;;;6.70;1.42;;;21.40;33.60;;;;;;5077710;28;20044;-68
2022/03/27 08:52:21;;;;;;;0.85;0.63;;;21.60;35.10;;;;;;5077918;28;20045;-68
2022/03/27 08:54:47;;;;;;;9.65;1.50;;;21.50;34.90;;;;;;5077914;28;20044;-68
2022/03/27 08:57:24;;;;;;;6.53;1.50;;;21.50;36.60;;;;;;5078111;28;20109;-68
2022/03/27 08:59:55;;;;;;;6.60;1.50;;;21.50;33.80;;;;;;5093624;28;20036;-68
2022/03/27 09:02:24;;;;;;;5.38;1.58;;;21.40;36.90;;;;;;5096938;28;20052;-67
2022/03/27 09:04:54;;;;;;;5.15;1.98;;;21.50;36.40;;;;;;5098039;28;20040;-68
2022/03/27 09:07:24;;;;;;;3.67;1.85;;;21.50;36.40;;;;;;5086768;28;20070;-67
2022/03/27 09:09:51;;;;;;;2.33;1.38;;;21.60;36.10;;;;;;5098062;28;20045;-68
2022/03/27 09:12:19;;;;;;;6.38;1.63;;;21.50;35.40;;;;;;5097984;28;20036;-67
2022/03/27 09:14:46;;;;;;;11.07;1.33;;;21.50;38.80;;;;;;5082032;28;20033;-67
2022/03/27 09:17:13;;;;;;;1.05;0.60;;;21.60;39.10;;;;;;5078002;28;20104;-67
2022/03/27 09:19:43;;;;;;;2.53;0.95;;;21.70;39.60;;;;;;5077922;28;20075;-67
2022/03/27 09:22:21;;;;;;;1.38;1.08;;;21.70;38.70;;;;;;5077511;28;20040;-67
2022/03/27 09:24:59;;;;;;;2.95;1.70;;;21.70;35.90;;;;;;5058734;28;20047;-67
2022/03/27 09:27:39;;;;;;;1.30;1.15;;;21.50;38.00;;;;;;5092794;28;20070;-67
2022/03/27 09:30:11;;;;;;;7.97;1.40;;;21.50;34.60;;;;;;5081891;28;20112;-67
2022/03/27 09:32:38;;;;;;;2.97;1.10;;;21.60;30.70;;;;;;5087025;28;20108;-67
2022/03/27 09:35:11;;;;;;;4.60;1.13;;;21.80;28.80;;;;;;5081604;28;20055;-67
2022/03/27 09:37:41;;;;;;;9.15;1.50;;;21.70;28.30;;;;;;5076468;28;20040;-67
2022/03/27 09:40:12;;;;;;;12.43;4.30;;;21.70;28.20;;;;;;5077958;28;20048;-67
2022/03/27 09:42:40;;;;;;;8.55;2.33;;;21.80;30.00;;;;;;5080389;28;20040;-67
2022/03/27 09:45:10;;;;;;;11.13;2.88;;;22.00;26.40;;;;;;5078111;28;20045;-67
2022/03/27 09:47:37;;;;;;;6.03;1.80;;;22.00;25.10;;;;;;5078440;28;20052;-68
2022/03/27 09:50:05;;;;;;;9.65;2.60;;;22.00;25.80;;;;;;5080780;28;20086;-67
2022/03/27 09:52:33;;;;;;;11.07;2.45;;;21.90;26.40;;;;;;5077202;28;20037;-67
2022/03/27 09:55:07;;;;;;;3.45;1.40;;;22.00;24.70;;;;;;5077044;28;20045;-68
2022/03/27 09:57:39;;;;;;;8.63;2.45;;;21.90;24.20;;;;;;5084782;28;20064;-68
2022/03/27 10:00:14;;;;;;;11.63;4.43;;;21.90;25.00;;;;;;5096091;28;20045;-67
2022/03/27 10:02:42;;;;;;;8.68;1.92;;;22.00;26.40;;;;;;5091349;28;20048;-67
2022/03/27 10:05:10;;;;;;;3.70;1.35;;;22.00;25.30;;;;;;5078217;28;20040;-68
2022/03/27 10:07:43;;;;;;;7.38;1.60;;;21.90;24.20;;;;;;5096797;28;20063;-68
2022/03/27 10:10:15;;;;;;;6.20;1.80;;;21.80;24.60;;;;;;5096848;28;20037;-68
2022/03/27 10:12:44;;;;;;;4.20;1.73;;;21.90;24.20;;;;;;5089920;28;20040;-68
2022/03/27 10:15:18;;;;;;;7.95;1.35;;;22.00;26.80;;;;;;5078236;28;20078;-69
2022/03/27 10:17:57;;;;;;;8.10;2.30;;;21.90;28.70;;;;;;5096856;28;20071;-68
2022/03/27 10:20:28;;;;;;;9.48;1.48;;;22.00;27.40;;;;;;5084648;28;20043;-69
2022/03/27 10:23:02;;;;;;;6.32;3.83;;;22.00;30.30;;;;;;5060313;28;20054;-68
2022/03/27 10:25:41;;;;;;;106.47;46.88;;;22.10;36.00;;;;;;5077700;28;20052;-67
2022/03/27 10:28:08;;;;;;;11.73;5.40;;;22.50;26.00;;;;;;5077226;28;20042;-71
2022/03/27 10:30:35;;;;;;;54.97;17.67;;;22.30;24.10;;;;;;5095920;28;20051;-67
2022/03/27 10:33:01;;;;;;;26.23;7.13;;;22.40;24.70;;;;;;5076668;28;20064;-68
2022/03/27 10:36:08;;;;;;;40.70;15.15;;;22.40;23.70;;;;;;5091474;28;20043;-67
2022/03/27 10:38:38;;;;;;;8.60;2.63;;;22.30;23.30;;;;;;5094967;28;20040;-67
2022/03/27 10:41:13;;;;;;;11.77;3.88;;;22.30;22.60;;;;;;5094925;28;20045;-68
2022/03/27 10:43:58;;;;;;;19.50;4.55;;;22.10;22.80;;;;;;5094780;28;20040;-67
2022/03/27 10:46:29;;;;;;;46.28;12.63;;;22.00;24.10;;;;;;5081323;28;20048;-68
2022/03/27 10:49:13;;;;;;;10.23;3.70;;;22.10;25.30;;;;;;5075769;28;20049;-68
2022/03/27 10:51:42;;;;;;;13.63;4.50;;;22.00;23.30;;;;;;5076562;28;20100;-69
2022/03/27 10:54:08;;;;;;;9.95;2.65;;;22.00;24.50;;;;;;5076296;28;20060;-67
2022/03/27 10:56:46;;;;;;;10.27;4.57;;;22.00;23.90;;;;;;5075934;28;20032;-68
2022/03/27 10:59:14;;;;;;;14.15;5.30;;;22.00;26.30;;;;;;5079457;28;20045;-67
2022/03/27 11:01:42;;;;;;;28.63;9.35;;;22.00;29.00;;;;;;5076028;28;20051;-68
2022/03/27 11:04:18;;;;;;;5.88;2.70;;;22.20;28.60;;;;;;5075911;28;20044;-69
2022/03/27 11:06:46;;;;;;;6.57;3.55;;;22.20;28.60;;;;;;5078392;28;20056;-68
2022/03/27 11:09:34;;;;;;;15.15;5.70;;;22.10;27.80;;;;;;5080070;28;20106;-67
2022/03/27 11:12:04;;;;;;;10.55;3.17;;;22.20;27.60;;;;;;5083340;28;20056;-68
2022/03/27 11:14:52;;;;;;;7.57;2.92;;;22.10;29.60;;;;;;5095836;28;20112;-68
2022/03/27 11:17:34;;;;;;;10.85;3.80;;;22.20;27.00;;;;;;5088693;28;20053;-69
2022/03/27 11:20:02;;;;;;;6.93;2.42;;;22.20;28.40;;;;;;5076061;28;20075;-66
2022/03/27 11:22:44;;;;;;;3.40;2.13;;;22.20;28.70;;;;;;5079301;28;20063;-69
2022/03/27 11:25:33;;;;;;;6.28;2.72;;;22.20;39.00;;;;;;5096152;28;20036;-68
2022/03/27 11:28:20;;;;;;;4.50;2.22;;;22.40;41.10;;;;;;5082241;28;20132;-68
2022/03/27 11:31:10;;;;;;;2.13;1.77;;;22.50;39.10;;;;;;5093725;28;20040;-69
2022/03/27 11:33:37;;;;;;;7.63;2.47;;;22.60;40.80;;;;;;5093139;28;20116;-70
2022/03/27 11:36:09;;;;;;;8.75;2.30;;;22.60;40.10;;;;;;5063841;28;20043;-69
2022/03/27 11:38:53;;;;;;;4.63;2.50;;;22.70;41.00;;;;;;5077892;28;20079;-69
2022/03/27 11:41:56;;;;;;;4.32;2.40;;;22.70;39.30;;;;;;5075491;28;20068;-69
2022/03/27 11:47:32;;;;;;;5.68;2.13;;;22.80;41.90;;;;;;5085111;28;20045;-70
2022/03/27 11:50:00;;;;;;;7.97;3.25;;;22.70;44.70;;;;;;5089020;28;20044;-69
2022/03/27 11:52:26;;;;;;;4.45;2.03;;;22.90;46.30;;;;;;5087480;28;20036;-70
2022/03/27 11:55:08;;;;;;;5.20;2.55;;;22.80;49.90;;;;;;5086048;28;20040;-69
2022/03/27 11:57:57;;;;;;;6.05;2.47;;;22.90;48.70;;;;;;5077041;28;20040;-69
2022/03/27 12:00:39;;;;;;;3.00;1.98;;;22.70;51.90;;;;;;5079149;28;22450;-68
2022/03/27 12:03:20;;;;;;;5.32;1.90;;;22.90;50.80;;;;;;5083850;28;20051;-68
2022/03/27 12:05:47;;;;;;;3.35;1.50;;;22.90;47.50;;;;;;5077982;28;20064;-68
2022/03/27 12:08:17;;;;;;;2.92;1.83;;;22.90;44.70;;;;;;5094061;28;20044;-68
2022/03/27 12:10:47;;;;;;;8.20;1.73;;;23.00;45.60;;;;;;5084345;28;20041;-68
2022/03/27 12:13:14;;;;;;;4.25;2.33;;;22.90;41.80;;;;;;5082681;28;20100;-69
2022/03/27 12:15:40;;;;;;;3.95;1.55;;;22.80;42.30;;;;;;5080102;28;20044;-68
2022/03/27 12:18:06;;;;;;;3.70;1.23;;;22.90;41.80;;;;;;5079103;28;20041;-68
2022/03/27 12:20:48;;;;;;;4.50;2.03;;;22.90;41.40;;;;;;5078819;28;20067;-69
2022/03/27 12:23:24;;;;;;;13.13;2.38;;;22.90;42.30;;;;;;5078863;28;20117;-68
2022/03/27 12:31:54;;;;;;;4.35;1.77;;;23.00;42.70;;;;;;5097996;28;20120;-68
2022/03/27 12:34:21;;;;;;;6.57;1.58;;;23.00;44.00;;;;;;5098963;28;20056;-68
2022/03/27 12:37:09;;;;;;;1.30;1.20;;;22.90;43.10;;;;;;5099043;28;20028;-68
2022/03/27 12:39:37;;;;;;;3.70;1.42;;;22.90;44.40;;;;;;5094860;28;20040;-67
2022/03/27 12:42:05;;;;;;;2.97;2.05;;;22.90;42.10;;;;;;5078828;28;20044;-68
2022/03/27 12:44:51;;;;;;;1.95;1.10;;;22.90;43.60;;;;;;5078588;28;20068;-68
2022/03/27 12:47:17;;;;;;;8.15;1.58;;;22.90;41.80;;;;;;5085598;28;20072;-68
2022/03/27 12:49:50;;;;;;;1.42;1.02;;;23.00;41.50;;;;;;5094533;28;20037;-69
2022/03/27 12:52:17;;;;;;;6.22;1.52;;;22.80;41.20;;;;;;5094577;28;20052;-68
2022/03/27 12:55:00;;;;;;;3.72;1.55;;;22.70;40.20;;;;;;5095362;28;20070;-68
2022/03/27 12:58:00;;;;;;;5.00;1.80;;;22.70;40.70;;;;;;5095082;28;20047;-68
2022/03/27 13:00:32;;;;;;;5.10;1.73;;;22.70;44.10;;;;;;5082645;28;20071;-69
2022/03/27 13:03:09;;;;;;;4.22;1.88;;;22.80;43.80;;;;;;5094629;28;20044;-68
2022/03/27 13:05:36;;;;;;;6.40;1.40;;;22.80;44.70;;;;;;5097062;28;20104;-68
2022/03/27 13:08:02;;;;;;;2.55;1.55;;;22.90;44.00;;;;;;5098562;28;20059;-68
2022/03/27 13:10:29;;;;;;;6.80;1.70;;;22.90;44.90;;;;;;5100587;28;20070;-69